Briefing drone pour Arpajon-sur-cere

Rechercher une autre localisation

Conditions de vol :


Nous sommes le : Samedi 23 octobre 2021
Il est 00:39 UTC (02:39 LT)

Lever de soleil : 05:49 UTC (07:49 LT)
Coucher de soleil : 17:18 UTC (19:18 LT)

Météo

L'essentiel des conditions de vol

VIGILANCE MÉTÉO FRANCE - Cantal (15)
Pas de vigilances particulieres
CARTE TEMSI
CARTES DES FRONTS
METAR de LFLW
LFLW 230030Z AUTO 11003KT CAVOK M01/M01 Q1024

Date d'émission: 23/10/2021
Heure d'émission: 00:30 UTC
Vent: 110° pour 3 KT (6 km/h)
Visibilité horizontale: > 10 km
Plafond : Plafond et visibilité OK (CAVOK)
Température: -1 °C
Point de rosée: -1 °C
Humidité: 100%
Pression (QNH): 1024 hPa
Prévision 24h pour Aurillac (1 km)
Vent : 81° pour 2 KT (7 km/h)
Temperature Maxi: 4 °C
Temperature Min: 4 °C
Humidité : 75%
Condition : Ciel dégagé



Warning: count(): Parameter must be an array or an object that implements Countable in /homepages/6/d509196549/htdocs/droneoxygene/briefing.php on line 743
WEBCAM POUR ARPAJON-SUR-CERE

Réglementation

Voler en sécurité

CARTES AERONAUTIQUE 1/500.000
CARTES VAC (LFLW)
SUP AIP




Chargement des AIP...
NOTAM (ARPAJON-SUR-CERE + Terrain à proximité / FIR )




Chargement des NOTAMS...
CONTACT PREFECTURE 15


Avertissement : Les données mises à disposition sont indicatives. Oxygène Drone ne pourra être tenu responsable de dégâts causés aux biens et aux personnes.